Terminal Aerodrome Forecast
Issued by NWS Portland, ME

Home | Current Version | Previous Version | Text Only | Print | Product List | Glossary On
Versions: 1 2 3 4 5 6 7 8 9 10 11 12 13 14 15 16 17 18 19 20 21
000
FTUS41 KGYX 301741
TAFPWM
TAF
KPWM 301741Z 3018/3118 35006KT 1SM -SN BR OVC012
      TEMPO 3019/3022 3/4SM -SN BR OVC008
     FM310000 34015G26KT 3SM -SN BLSN OVC020
     FM311000 33018G28KT P6SM -SHSN BKN035=

USA.gov is the U.S. government's official web portal to all federal, state and local government web resources and services.